sensor_id;sensor_type;location;lat;lon;timestamp;P1;durP1;ratioP1;P2;durP2;ratioP2
70997;SDS011;58663;52.040;4.634;2023-01-30T00:02:10;18.00;;;6.60;;
70997;SDS011;58663;52.040;4.634;2023-01-30T00:04:36;16.13;;;6.00;;
70997;SDS011;58663;52.040;4.634;2023-01-30T00:07:01;16.85;;;7.35;;
70997;SDS011;58663;52.040;4.634;2023-01-30T00:09:27;19.17;;;6.18;;
70997;SDS011;58663;52.040;4.634;2023-01-30T00:11:52;18.08;;;6.68;;
70997;SDS011;58663;52.040;4.634;2023-01-30T00:14:18;18.23;;;6.75;;
70997;SDS011;58663;52.040;4.634;2023-01-30T00:16:43;17.13;;;6.35;;
70997;SDS011;58663;52.040;4.634;2023-01-30T00:19:09;16.95;;;6.28;;
70997;SDS011;58663;52.040;4.634;2023-01-30T00:21:34;14.68;;;6.15;;
70997;SDS011;58663;52.040;4.634;2023-01-30T00:23:59;15.32;;;6.63;;
70997;SDS011;58663;52.040;4.634;2023-01-30T00:26:25;14.90;;;6.22;;
70997;SDS011;58663;52.040;4.634;2023-01-30T00:28:51;23.17;;;7.50;;
70997;SDS011;58663;52.040;4.634;2023-01-30T00:31:16;11.57;;;5.45;;
70997;SDS011;58663;52.040;4.634;2023-01-30T00:33:42;11.88;;;5.53;;
70997;SDS011;58663;52.040;4.634;2023-01-30T00:36:08;15.95;;;6.05;;
70997;SDS011;58663;52.040;4.634;2023-01-30T00:38:33;19.83;;;5.88;;
70997;SDS011;58663;52.040;4.634;2023-01-30T00:40:59;21.98;;;5.88;;
70997;SDS011;58663;52.040;4.634;2023-01-30T00:43:25;14.75;;;5.90;;
70997;SDS011;58663;52.040;4.634;2023-01-30T00:46:11;12.20;;;5.28;;
70997;SDS011;58663;52.040;4.634;2023-01-30T00:49:09;14.00;;;5.70;;
70997;SDS011;58663;52.040;4.634;2023-01-30T00:51:34;13.88;;;5.72;;
70997;SDS011;58663;52.040;4.634;2023-01-30T00:54:00;18.98;;;6.53;;
70997;SDS011;58663;52.040;4.634;2023-01-30T00:56:25;15.95;;;5.88;;
70997;SDS011;58663;52.040;4.634;2023-01-30T00:58:51;17.83;;;5.30;;
70997;SDS011;58663;52.040;4.634;2023-01-30T01:01:16;13.02;;;5.47;;
70997;SDS011;58663;52.040;4.634;2023-01-30T01:03:42;13.18;;;5.28;;
70997;SDS011;58663;52.040;4.634;2023-01-30T01:06:07;12.32;;;5.50;;
70997;SDS011;58663;52.040;4.634;2023-01-30T01:08:33;14.25;;;5.20;;
70997;SDS011;58663;52.040;4.634;2023-01-30T01:10:58;14.15;;;5.30;;
70997;SDS011;58663;52.040;4.634;2023-01-30T01:13:24;12.77;;;4.85;;
70997;SDS011;58663;52.040;4.634;2023-01-30T01:15:49;13.10;;;4.85;;
70997;SDS011;58663;52.040;4.634;2023-01-30T01:18:14;18.95;;;4.97;;
70997;SDS011;58663;52.040;4.634;2023-01-30T01:20:40;13.00;;;3.80;;
70997;SDS011;58663;52.040;4.634;2023-01-30T01:23:05;14.25;;;4.40;;
70997;SDS011;58663;52.040;4.634;2023-01-30T01:25:31;11.07;;;3.78;;
70997;SDS011;58663;52.040;4.634;2023-01-30T01:27:56;10.35;;;3.83;;
70997;SDS011;58663;52.040;4.634;2023-01-30T01:30:22;13.20;;;4.00;;
70997;SDS011;58663;52.040;4.634;2023-01-30T01:32:47;16.08;;;4.38;;
70997;SDS011;58663;52.040;4.634;2023-01-30T01:35:13;8.90;;;3.47;;
70997;SDS011;58663;52.040;4.634;2023-01-30T01:37:38;15.95;;;3.72;;
70997;SDS011;58663;52.040;4.634;2023-01-30T01:40:04;12.07;;;3.75;;
70997;SDS011;58663;52.040;4.634;2023-01-30T01:42:49;8.80;;;3.08;;
70997;SDS011;58663;52.040;4.634;2023-01-30T01:45:24;16.15;;;4.05;;
70997;SDS011;58663;52.040;4.634;2023-01-30T01:48:00;14.00;;;3.30;;
70997;SDS011;58663;52.040;4.634;2023-01-30T01:53:01;12.27;;;3.58;;
70997;SDS011;58663;52.040;4.634;2023-01-30T01:55:27;19.15;;;4.50;;
70997;SDS011;58663;52.040;4.634;2023-01-30T01:58:01;16.33;;;2.75;;
70997;SDS011;58663;52.040;4.634;2023-01-30T02:00:29;14.50;;;4.82;;
70997;SDS011;58663;52.040;4.634;2023-01-30T02:02:59;17.08;;;3.90;;
70997;SDS011;58663;52.040;4.634;2023-01-30T02:05:30;16.77;;;3.50;;
70997;SDS011;58663;52.040;4.634;2023-01-30T02:13:33;12.05;;;3.08;;
70997;SDS011;58663;52.040;4.634;2023-01-30T02:16:03;12.52;;;3.33;;
70997;SDS011;58663;52.040;4.634;2023-01-30T02:18:29;10.80;;;3.15;;
70997;SDS011;58663;52.040;4.634;2023-01-30T02:32:17;19.10;;;3.72;;
70997;SDS011;58663;52.040;4.634;2023-01-30T02:34:55;11.07;;;2.78;;
70997;SDS011;58663;52.040;4.634;2023-01-30T02:37:44;12.98;;;3.78;;
70997;SDS011;58663;52.040;4.634;2023-01-30T02:48:10;14.65;;;4.22;;
70997;SDS011;58663;52.040;4.634;2023-01-30T02:50:52;14.52;;;3.55;;
70997;SDS011;58663;52.040;4.634;2023-01-30T02:53:21;14.50;;;3.40;;
70997;SDS011;58663;52.040;4.634;2023-01-30T02:55:47;11.10;;;3.40;;
70997;SDS011;58663;52.040;4.634;2023-01-30T02:58:12;13.27;;;3.90;;
70997;SDS011;58663;52.040;4.634;2023-01-30T03:03:46;12.32;;;3.67;;
70997;SDS011;58663;52.040;4.634;2023-01-30T03:09:09;16.70;;;3.85;;
70997;SDS011;58663;52.040;4.634;2023-01-30T03:11:45;14.07;;;3.95;;
70997;SDS011;58663;52.040;4.634;2023-01-30T03:14:17;15.82;;;3.60;;
70997;SDS011;58663;52.040;4.634;2023-01-30T03:17:13;16.33;;;3.33;;
70997;SDS011;58663;52.040;4.634;2023-01-30T03:19:39;18.02;;;3.65;;
70997;SDS011;58663;52.040;4.634;2023-01-30T03:22:05;22.83;;;4.65;;
70997;SDS011;58663;52.040;4.634;2023-01-30T03:24:31;12.98;;;4.07;;
70997;SDS011;58663;52.040;4.634;2023-01-30T03:27:02;19.45;;;3.33;;
70997;SDS011;58663;52.040;4.634;2023-01-30T03:29:30;25.85;;;3.67;;
70997;SDS011;58663;52.040;4.634;2023-01-30T03:31:55;16.80;;;3.75;;
70997;SDS011;58663;52.040;4.634;2023-01-30T03:34:21;16.85;;;4.80;;
70997;SDS011;58663;52.040;4.634;2023-01-30T03:36:46;8.35;;;2.55;;
70997;SDS011;58663;52.040;4.634;2023-01-30T03:39:12;14.13;;;3.78;;
70997;SDS011;58663;52.040;4.634;2023-01-30T03:41:37;19.30;;;4.03;;
70997;SDS011;58663;52.040;4.634;2023-01-30T03:44:03;12.63;;;3.42;;
70997;SDS011;58663;52.040;4.634;2023-01-30T03:46:28;12.50;;;3.05;;
70997;SDS011;58663;52.040;4.634;2023-01-30T03:48:54;12.43;;;2.97;;
70997;SDS011;58663;52.040;4.634;2023-01-30T03:51:19;15.10;;;3.05;;
70997;SDS011;58663;52.040;4.634;2023-01-30T03:53:45;15.30;;;3.47;;
70997;SDS011;58663;52.040;4.634;2023-01-30T03:56:10;20.80;;;3.97;;
70997;SDS011;58663;52.040;4.634;2023-01-30T03:58:36;18.85;;;3.80;;
70997;SDS011;58663;52.040;4.634;2023-01-30T04:01:01;14.45;;;3.22;;
70997;SDS011;58663;52.040;4.634;2023-01-30T04:03:27;16.42;;;3.50;;
70997;SDS011;58663;52.040;4.634;2023-01-30T04:05:52;17.48;;;4.35;;
70997;SDS011;58663;52.040;4.634;2023-01-30T04:08:18;18.65;;;3.83;;
70997;SDS011;58663;52.040;4.634;2023-01-30T04:10:43;26.23;;;3.97;;
70997;SDS011;58663;52.040;4.634;2023-01-30T04:13:08;12.93;;;3.35;;
70997;SDS011;58663;52.040;4.634;2023-01-30T04:15:34;14.05;;;3.13;;
70997;SDS011;58663;52.040;4.634;2023-01-30T04:17:59;15.07;;;2.85;;
70997;SDS011;58663;52.040;4.634;2023-01-30T04:20:25;7.78;;;2.65;;
70997;SDS011;58663;52.040;4.634;2023-01-30T04:22:50;15.85;;;2.45;;
70997;SDS011;58663;52.040;4.634;2023-01-30T04:25:16;11.90;;;2.42;;
70997;SDS011;58663;52.040;4.634;2023-01-30T04:27:42;16.67;;;2.35;;
70997;SDS011;58663;52.040;4.634;2023-01-30T04:30:08;12.70;;;2.88;;
70997;SDS011;58663;52.040;4.634;2023-01-30T04:32:36;10.00;;;2.60;;
70997;SDS011;58663;52.040;4.634;2023-01-30T04:35:02;9.13;;;2.75;;
70997;SDS011;58663;52.040;4.634;2023-01-30T04:37:27;12.82;;;2.53;;
70997;SDS011;58663;52.040;4.634;2023-01-30T04:39:53;17.90;;;1.90;;
70997;SDS011;58663;52.040;4.634;2023-01-30T04:42:18;13.45;;;2.70;;
70997;SDS011;58663;52.040;4.634;2023-01-30T04:44:44;6.80;;;1.95;;
70997;SDS011;58663;52.040;4.634;2023-01-30T04:47:09;7.30;;;1.92;;
70997;SDS011;58663;52.040;4.634;2023-01-30T04:49:35;8.88;;;2.42;;
70997;SDS011;58663;52.040;4.634;2023-01-30T04:52:00;11.73;;;1.90;;
70997;SDS011;58663;52.040;4.634;2023-01-30T04:54:26;9.02;;;1.80;;
70997;SDS011;58663;52.040;4.634;2023-01-30T04:56:51;18.33;;;1.67;;
70997;SDS011;58663;52.040;4.634;2023-01-30T04:59:16;11.27;;;2.55;;
70997;SDS011;58663;52.040;4.634;2023-01-30T05:01:42;11.20;;;2.22;;
70997;SDS011;58663;52.040;4.634;2023-01-30T05:04:08;10.95;;;2.47;;
70997;SDS011;58663;52.040;4.634;2023-01-30T05:06:33;10.65;;;2.28;;
70997;SDS011;58663;52.040;4.634;2023-01-30T05:09:00;9.15;;;2.28;;
70997;SDS011;58663;52.040;4.634;2023-01-30T05:11:26;13.60;;;2.72;;
70997;SDS011;58663;52.040;4.634;2023-01-30T05:13:53;13.60;;;2.38;;
70997;SDS011;58663;52.040;4.634;2023-01-30T05:16:18;11.43;;;2.83;;
70997;SDS011;58663;52.040;4.634;2023-01-30T05:18:47;11.75;;;2.42;;
70997;SDS011;58663;52.040;4.634;2023-01-30T05:23:42;10.70;;;2.17;;
70997;SDS011;58663;52.040;4.634;2023-01-30T05:26:08;9.05;;;2.20;;
70997;SDS011;58663;52.040;4.634;2023-01-30T05:28:35;9.40;;;2.22;;
70997;SDS011;58663;52.040;4.634;2023-01-30T05:31:01;13.75;;;3.05;;
70997;SDS011;58663;52.040;4.634;2023-01-30T05:33:27;13.02;;;2.67;;
70997;SDS011;58663;52.040;4.634;2023-01-30T05:35:52;21.65;;;3.38;;
70997;SDS011;58663;52.040;4.634;2023-01-30T05:38:18;15.65;;;3.38;;
70997;SDS011;58663;52.040;4.634;2023-01-30T05:40:43;15.35;;;2.90;;
70997;SDS011;58663;52.040;4.634;2023-01-30T05:43:09;8.35;;;2.15;;
70997;SDS011;58663;52.040;4.634;2023-01-30T05:45:34;19.52;;;3.58;;
70997;SDS011;58663;52.040;4.634;2023-01-30T05:48:01;15.75;;;2.47;;
70997;SDS011;58663;52.040;4.634;2023-01-30T05:50:27;17.48;;;3.10;;
70997;SDS011;58663;52.040;4.634;2023-01-30T05:52:52;18.42;;;2.40;;
70997;SDS011;58663;52.040;4.634;2023-01-30T05:55:18;18.48;;;3.08;;
70997;SDS011;58663;52.040;4.634;2023-01-30T05:57:43;18.25;;;2.75;;
70997;SDS011;58663;52.040;4.634;2023-01-30T06:00:09;15.50;;;2.25;;
70997;SDS011;58663;52.040;4.634;2023-01-30T06:02:35;19.55;;;2.47;;
70997;SDS011;58663;52.040;4.634;2023-01-30T06:05:01;16.55;;;2.67;;
70997;SDS011;58663;52.040;4.634;2023-01-30T06:07:26;23.73;;;3.20;;
70997;SDS011;58663;52.040;4.634;2023-01-30T06:09:52;17.13;;;3.38;;
70997;SDS011;58663;52.040;4.634;2023-01-30T06:12:17;22.05;;;3.25;;
70997;SDS011;58663;52.040;4.634;2023-01-30T06:14:43;20.10;;;2.72;;
70997;SDS011;58663;52.040;4.634;2023-01-30T06:17:08;24.45;;;2.80;;
70997;SDS011;58663;52.040;4.634;2023-01-30T06:19:34;28.10;;;3.53;;
70997;SDS011;58663;52.040;4.634;2023-01-30T06:21:59;21.00;;;3.33;;
70997;SDS011;58663;52.040;4.634;2023-01-30T06:24:25;20.67;;;2.53;;
70997;SDS011;58663;52.040;4.634;2023-01-30T06:26:50;22.70;;;2.83;;
70997;SDS011;58663;52.040;4.634;2023-01-30T06:29:16;26.25;;;2.97;;
70997;SDS011;58663;52.040;4.634;2023-01-30T06:31:41;23.08;;;3.53;;
70997;SDS011;58663;52.040;4.634;2023-01-30T06:34:07;15.60;;;3.85;;
70997;SDS011;58663;52.040;4.634;2023-01-30T06:36:32;28.80;;;4.43;;
70997;SDS011;58663;52.040;4.634;2023-01-30T06:38:58;14.25;;;2.40;;
70997;SDS011;58663;52.040;4.634;2023-01-30T06:41:23;17.98;;;3.08;;
70997;SDS011;58663;52.040;4.634;2023-01-30T06:43:48;19.15;;;2.72;;
70997;SDS011;58663;52.040;4.634;2023-01-30T06:46:14;22.67;;;3.22;;
70997;SDS011;58663;52.040;4.634;2023-01-30T06:48:39;21.90;;;2.65;;
70997;SDS011;58663;52.040;4.634;2023-01-30T06:51:05;30.20;;;3.15;;
70997;SDS011;58663;52.040;4.634;2023-01-30T06:53:30;17.92;;;2.78;;
70997;SDS011;58663;52.040;4.634;2023-01-30T06:56:00;18.80;;;2.83;;
70997;SDS011;58663;52.040;4.634;2023-01-30T06:58:25;13.13;;;2.05;;
70997;SDS011;58663;52.040;4.634;2023-01-30T07:00:51;17.45;;;2.30;;
70997;SDS011;58663;52.040;4.634;2023-01-30T07:03:17;14.98;;;2.92;;
70997;SDS011;58663;52.040;4.634;2023-01-30T07:05:43;11.50;;;1.92;;
70997;SDS011;58663;52.040;4.634;2023-01-30T07:08:10;16.38;;;2.00;;
70997;SDS011;58663;52.040;4.634;2023-01-30T07:10:36;13.65;;;3.03;;
70997;SDS011;58663;52.040;4.634;2023-01-30T07:13:02;19.80;;;2.72;;
70997;SDS011;58663;52.040;4.634;2023-01-30T07:15:28;16.80;;;2.35;;
70997;SDS011;58663;52.040;4.634;2023-01-30T07:17:54;16.17;;;3.03;;
70997;SDS011;58663;52.040;4.634;2023-01-30T07:20:20;27.20;;;3.13;;
70997;SDS011;58663;52.040;4.634;2023-01-30T07:22:53;21.90;;;2.55;;
70997;SDS011;58663;52.040;4.634;2023-01-30T07:25:20;13.20;;;2.63;;
70997;SDS011;58663;52.040;4.634;2023-01-30T07:27:50;24.80;;;3.05;;
70997;SDS011;58663;52.040;4.634;2023-01-30T07:30:27;15.25;;;2.40;;
70997;SDS011;58663;52.040;4.634;2023-01-30T07:32:54;9.90;;;1.98;;
70997;SDS011;58663;52.040;4.634;2023-01-30T07:35:21;14.60;;;2.25;;
70997;SDS011;58663;52.040;4.634;2023-01-30T07:37:48;17.42;;;2.35;;
70997;SDS011;58663;52.040;4.634;2023-01-30T07:40:13;13.70;;;2.42;;
70997;SDS011;58663;52.040;4.634;2023-01-30T07:42:40;11.35;;;1.95;;
70997;SDS011;58663;52.040;4.634;2023-01-30T07:45:06;15.98;;;2.47;;
70997;SDS011;58663;52.040;4.634;2023-01-30T07:47:32;19.65;;;2.60;;
70997;SDS011;58663;52.040;4.634;2023-01-30T07:49:57;18.60;;;2.60;;
70997;SDS011;58663;52.040;4.634;2023-01-30T07:52:23;25.42;;;2.55;;
70997;SDS011;58663;52.040;4.634;2023-01-30T07:54:48;9.10;;;1.77;;
70997;SDS011;58663;52.040;4.634;2023-01-30T07:57:14;11.98;;;2.53;;
70997;SDS011;58663;52.040;4.634;2023-01-30T07:59:39;16.08;;;2.25;;
70997;SDS011;58663;52.040;4.634;2023-01-30T08:02:05;21.23;;;3.05;;
70997;SDS011;58663;52.040;4.634;2023-01-30T08:04:33;18.15;;;2.83;;
70997;SDS011;58663;52.040;4.634;2023-01-30T08:06:58;21.35;;;2.67;;
70997;SDS011;58663;52.040;4.634;2023-01-30T08:09:24;13.57;;;1.92;;
70997;SDS011;58663;52.040;4.634;2023-01-30T08:11:49;15.32;;;2.40;;
70997;SDS011;58663;52.040;4.634;2023-01-30T08:14:15;15.95;;;2.70;;
70997;SDS011;58663;52.040;4.634;2023-01-30T08:16:40;15.45;;;2.15;;
70997;SDS011;58663;52.040;4.634;2023-01-30T08:19:06;18.35;;;3.00;;
70997;SDS011;58663;52.040;4.634;2023-01-30T08:21:32;18.48;;;3.35;;
70997;SDS011;58663;52.040;4.634;2023-01-30T08:23:57;23.73;;;3.75;;
70997;SDS011;58663;52.040;4.634;2023-01-30T08:26:23;20.45;;;2.95;;
70997;SDS011;58663;52.040;4.634;2023-01-30T08:28:48;9.82;;;1.77;;
70997;SDS011;58663;52.040;4.634;2023-01-30T08:31:15;6.93;;;2.03;;
70997;SDS011;58663;52.040;4.634;2023-01-30T08:33:41;19.92;;;3.53;;
70997;SDS011;58663;52.040;4.634;2023-01-30T08:36:07;9.55;;;2.75;;
70997;SDS011;58663;52.040;4.634;2023-01-30T08:38:33;26.55;;;3.08;;
70997;SDS011;58663;52.040;4.634;2023-01-30T08:40:58;15.65;;;2.72;;
70997;SDS011;58663;52.040;4.634;2023-01-30T08:43:25;19.95;;;1.92;;
70997;SDS011;58663;52.040;4.634;2023-01-30T08:45:54;16.67;;;3.28;;
70997;SDS011;58663;52.040;4.634;2023-01-30T08:48:20;18.33;;;2.85;;
70997;SDS011;58663;52.040;4.634;2023-01-30T08:50:46;23.27;;;2.20;;
70997;SDS011;58663;52.040;4.634;2023-01-30T08:53:11;14.27;;;2.70;;
70997;SDS011;58663;52.040;4.634;2023-01-30T08:55:37;12.73;;;2.53;;
70997;SDS011;58663;52.040;4.634;2023-01-30T08:58:02;18.90;;;2.25;;
70997;SDS011;58663;52.040;4.634;2023-01-30T09:00:28;16.77;;;2.65;;
70997;SDS011;58663;52.040;4.634;2023-01-30T09:02:54;10.38;;;2.70;;
70997;SDS011;58663;52.040;4.634;2023-01-30T09:05:20;16.50;;;2.65;;
70997;SDS011;58663;52.040;4.634;2023-01-30T09:07:46;25.25;;;3.28;;
70997;SDS011;58663;52.040;4.634;2023-01-30T09:10:11;13.20;;;2.45;;
70997;SDS011;58663;52.040;4.634;2023-01-30T09:12:37;13.45;;;2.58;;
70997;SDS011;58663;52.040;4.634;2023-01-30T09:15:03;18.33;;;2.42;;
70997;SDS011;58663;52.040;4.634;2023-01-30T09:17:29;10.00;;;1.85;;
70997;SDS011;58663;52.040;4.634;2023-01-30T09:19:55;12.45;;;2.33;;
70997;SDS011;58663;52.040;4.634;2023-01-30T09:22:20;16.65;;;2.30;;
70997;SDS011;58663;52.040;4.634;2023-01-30T09:24:46;16.23;;;2.85;;
70997;SDS011;58663;52.040;4.634;2023-01-30T09:27:11;21.70;;;3.10;;
70997;SDS011;58663;52.040;4.634;2023-01-30T09:29:37;18.80;;;2.38;;
70997;SDS011;58663;52.040;4.634;2023-01-30T09:32:02;17.75;;;4.05;;
70997;SDS011;58663;52.040;4.634;2023-01-30T09:34:28;8.55;;;2.13;;
70997;SDS011;58663;52.040;4.634;2023-01-30T09:36:54;15.55;;;3.28;;
70997;SDS011;58663;52.040;4.634;2023-01-30T09:39:20;26.73;;;2.53;;
70997;SDS011;58663;52.040;4.634;2023-01-30T09:47:03;17.33;;;3.15;;
70997;SDS011;58663;52.040;4.634;2023-01-30T09:49:51;17.27;;;3.03;;
70997;SDS011;58663;52.040;4.634;2023-01-30T09:54:59;17.27;;;2.15;;
70997;SDS011;58663;52.040;4.634;2023-01-30T09:57:27;15.43;;;2.15;;
70997;SDS011;58663;52.040;4.634;2023-01-30T10:05:15;12.70;;;2.83;;
70997;SDS011;58663;52.040;4.634;2023-01-30T10:10:45;12.70;;;2.20;;
70997;SDS011;58663;52.040;4.634;2023-01-30T10:21:56;22.05;;;2.58;;
70997;SDS011;58663;52.040;4.634;2023-01-30T10:27:28;21.35;;;2.75;;
70997;SDS011;58663;52.040;4.634;2023-01-30T10:29:59;18.55;;;3.15;;
70997;SDS011;58663;52.040;4.634;2023-01-30T10:35:22;15.95;;;3.25;;
70997;SDS011;58663;52.040;4.634;2023-01-30T10:37:52;17.55;;;2.55;;
70997;SDS011;58663;52.040;4.634;2023-01-30T10:40:32;17.27;;;2.65;;
70997;SDS011;58663;52.040;4.634;2023-01-30T10:43:16;23.63;;;3.80;;
70997;SDS011;58663;52.040;4.634;2023-01-30T10:46:09;14.80;;;2.80;;
70997;SDS011;58663;52.040;4.634;2023-01-30T10:51:54;14.20;;;2.85;;
70997;SDS011;58663;52.040;4.634;2023-01-30T11:00:46;10.30;;;2.22;;
70997;SDS011;58663;52.040;4.634;2023-01-30T11:04:02;21.75;;;2.95;;
70997;SDS011;58663;52.040;4.634;2023-01-30T11:06:07;18.25;;;2.53;;
70997;SDS011;58663;52.040;4.634;2023-01-30T11:08:36;19.00;;;2.78;;
70997;SDS011;58663;52.040;4.634;2023-01-30T11:16:28;14.68;;;2.60;;
70997;SDS011;58663;52.040;4.634;2023-01-30T11:18:54;19.83;;;2.65;;
70997;SDS011;58663;52.040;4.634;2023-01-30T11:21:27;14.70;;;2.97;;
70997;SDS011;58663;52.040;4.634;2023-01-30T11:23:54;18.35;;;3.47;;
70997;SDS011;58663;52.040;4.634;2023-01-30T11:26:21;15.32;;;2.70;;
70997;SDS011;58663;52.040;4.634;2023-01-30T11:28:49;19.45;;;3.17;;
70997;SDS011;58663;52.040;4.634;2023-01-30T11:31:15;13.85;;;2.65;;
70997;SDS011;58663;52.040;4.634;2023-01-30T11:33:46;21.27;;;3.63;;
70997;SDS011;58663;52.040;4.634;2023-01-30T11:36:27;15.10;;;2.78;;
70997;SDS011;58663;52.040;4.634;2023-01-30T11:38:59;22.13;;;4.13;;
70997;SDS011;58663;52.040;4.634;2023-01-30T11:44:24;22.00;;;3.33;;
70997;SDS011;58663;52.040;4.634;2023-01-30T11:46:51;14.05;;;2.33;;
70997;SDS011;58663;52.040;4.634;2023-01-30T11:49:17;18.58;;;3.03;;
70997;SDS011;58663;52.040;4.634;2023-01-30T11:51:45;16.88;;;2.83;;
70997;SDS011;58663;52.040;4.634;2023-01-30T11:54:13;17.30;;;3.83;;
70997;SDS011;58663;52.040;4.634;2023-01-30T11:59:21;16.90;;;3.03;;
70997;SDS011;58663;52.040;4.634;2023-01-30T12:02:00;14.00;;;3.50;;
70997;SDS011;58663;52.040;4.634;2023-01-30T12:04:30;17.92;;;3.65;;
70997;SDS011;58663;52.040;4.634;2023-01-30T12:07:06;17.55;;;2.45;;
70997;SDS011;58663;52.040;4.634;2023-01-30T12:09:40;14.32;;;2.70;;
70997;SDS011;58663;52.040;4.634;2023-01-30T12:23:10;22.15;;;3.22;;
70997;SDS011;58663;52.040;4.634;2023-01-30T12:28:42;23.70;;;2.70;;
70997;SDS011;58663;52.040;4.634;2023-01-30T12:31:15;24.33;;;3.13;;
70997;SDS011;58663;52.040;4.634;2023-01-30T12:33:44;23.95;;;3.35;;
70997;SDS011;58663;52.040;4.634;2023-01-30T12:44:20;24.83;;;3.35;;
70997;SDS011;58663;52.040;4.634;2023-01-30T12:52:13;15.63;;;2.95;;
70997;SDS011;58663;52.040;4.634;2023-01-30T12:54:53;19.67;;;2.95;;
70997;SDS011;58663;52.040;4.634;2023-01-30T12:57:43;17.52;;;2.80;;
70997;SDS011;58663;52.040;4.634;2023-01-30T13:08:33;20.80;;;2.85;;
70997;SDS011;58663;52.040;4.634;2023-01-30T13:11:40;24.40;;;3.92;;
70997;SDS011;58663;52.040;4.634;2023-01-30T13:14:22;19.85;;;3.85;;
70997;SDS011;58663;52.040;4.634;2023-01-30T13:25:07;17.52;;;3.20;;
70997;SDS011;58663;52.040;4.634;2023-01-30T13:27:43;20.10;;;2.85;;
70997;SDS011;58663;52.040;4.634;2023-01-30T13:30:13;18.58;;;2.83;;
70997;SDS011;58663;52.040;4.634;2023-01-30T13:33:02;13.95;;;2.75;;
70997;SDS011;58663;52.040;4.634;2023-01-30T13:35:32;19.20;;;2.90;;
70997;SDS011;58663;52.040;4.634;2023-01-30T13:37:59;18.17;;;3.00;;
70997;SDS011;58663;52.040;4.634;2023-01-30T13:40:27;26.80;;;2.70;;
70997;SDS011;58663;52.040;4.634;2023-01-30T13:43:10;17.77;;;2.95;;
70997;SDS011;58663;52.040;4.634;2023-01-30T13:45:39;15.63;;;2.60;;
70997;SDS011;58663;52.040;4.634;2023-01-30T13:48:20;15.88;;;2.70;;
70997;SDS011;58663;52.040;4.634;2023-01-30T13:58:39;18.63;;;2.80;;
70997;SDS011;58663;52.040;4.634;2023-01-30T14:01:10;21.70;;;2.13;;
70997;SDS011;58663;52.040;4.634;2023-01-30T14:03:37;18.58;;;3.08;;
70997;SDS011;58663;52.040;4.634;2023-01-30T14:06:05;27.13;;;3.65;;
70997;SDS011;58663;52.040;4.634;2023-01-30T14:13:53;17.85;;;3.00;;
70997;SDS011;58663;52.040;4.634;2023-01-30T14:16:38;15.90;;;2.95;;
70997;SDS011;58663;52.040;4.634;2023-01-30T14:19:28;18.80;;;2.90;;
70997;SDS011;58663;52.040;4.634;2023-01-30T14:21:57;21.23;;;3.22;;
70997;SDS011;58663;52.040;4.634;2023-01-30T14:24:24;20.10;;;2.78;;
70997;SDS011;58663;52.040;4.634;2023-01-30T14:32:01;24.08;;;3.28;;
70997;SDS011;58663;52.040;4.634;2023-01-30T14:34:41;21.63;;;3.40;;
70997;SDS011;58663;52.040;4.634;2023-01-30T14:37:28;20.58;;;3.45;;
70997;SDS011;58663;52.040;4.634;2023-01-30T14:39:59;16.48;;;2.47;;
70997;SDS011;58663;52.040;4.634;2023-01-30T14:42:28;24.10;;;2.97;;
70997;SDS011;58663;52.040;4.634;2023-01-30T14:47:24;17.85;;;3.45;;
70997;SDS011;58663;52.040;4.634;2023-01-30T14:49:51;20.50;;;3.63;;
70997;SDS011;58663;52.040;4.634;2023-01-30T14:52:37;18.02;;;2.60;;
70997;SDS011;58663;52.040;4.634;2023-01-30T14:55:05;19.63;;;2.78;;
70997;SDS011;58663;52.040;4.634;2023-01-30T14:57:50;34.55;;;3.92;;
70997;SDS011;58663;52.040;4.634;2023-01-30T15:00:26;17.60;;;3.00;;
70997;SDS011;58663;52.040;4.634;2023-01-30T15:03:00;19.63;;;3.42;;
70997;SDS011;58663;52.040;4.634;2023-01-30T15:05:33;27.27;;;3.50;;
70997;SDS011;58663;52.040;4.634;2023-01-30T15:08:05;18.58;;;2.97;;
70997;SDS011;58663;52.040;4.634;2023-01-30T15:24:13;18.20;;;2.95;;
70997;SDS011;58663;52.040;4.634;2023-01-30T15:26:52;28.70;;;3.25;;
70997;SDS011;58663;52.040;4.634;2023-01-30T15:32:31;19.20;;;2.65;;
70997;SDS011;58663;52.040;4.634;2023-01-30T15:34:58;12.80;;;2.30;;
70997;SDS011;58663;52.040;4.634;2023-01-30T15:37:29;19.85;;;2.80;;
70997;SDS011;58663;52.040;4.634;2023-01-30T15:42:46;18.88;;;3.55;;
70997;SDS011;58663;52.040;4.634;2023-01-30T15:45:19;21.10;;;2.95;;
70997;SDS011;58663;52.040;4.634;2023-01-30T15:47:51;28.77;;;4.63;;
70997;SDS011;58663;52.040;4.634;2023-01-30T15:50:24;22.85;;;3.33;;
70997;SDS011;58663;52.040;4.634;2023-01-30T15:52:49;25.10;;;3.22;;
70997;SDS011;58663;52.040;4.634;2023-01-30T15:55:17;23.48;;;3.08;;
70997;SDS011;58663;52.040;4.634;2023-01-30T15:57:47;26.02;;;3.25;;
70997;SDS011;58663;52.040;4.634;2023-01-30T16:00:20;25.33;;;3.58;;
70997;SDS011;58663;52.040;4.634;2023-01-30T16:02:50;17.20;;;2.97;;
70997;SDS011;58663;52.040;4.634;2023-01-30T16:05:17;23.33;;;3.60;;
70997;SDS011;58663;52.040;4.634;2023-01-30T16:07:45;22.98;;;3.15;;
70997;SDS011;58663;52.040;4.634;2023-01-30T16:10:20;27.23;;;3.88;;
70997;SDS011;58663;52.040;4.634;2023-01-30T16:12:47;32.58;;;3.25;;
70997;SDS011;58663;52.040;4.634;2023-01-30T16:17:45;18.80;;;2.35;;
70997;SDS011;58663;52.040;4.634;2023-01-30T16:20:18;25.48;;;5.15;;
70997;SDS011;58663;52.040;4.634;2023-01-30T16:22:45;18.63;;;3.67;;
70997;SDS011;58663;52.040;4.634;2023-01-30T16:25:15;25.13;;;3.83;;
70997;SDS011;58663;52.040;4.634;2023-01-30T16:27:45;22.95;;;3.97;;
70997;SDS011;58663;52.040;4.634;2023-01-30T16:30:18;26.90;;;3.63;;
70997;SDS011;58663;52.040;4.634;2023-01-30T16:32:45;23.15;;;3.25;;
70997;SDS011;58663;52.040;4.634;2023-01-30T16:35:15;28.95;;;3.47;;
70997;SDS011;58663;52.040;4.634;2023-01-30T16:37:47;20.55;;;3.10;;
70997;SDS011;58663;52.040;4.634;2023-01-30T16:40:14;25.85;;;3.33;;
70997;SDS011;58663;52.040;4.634;2023-01-30T16:42:58;25.75;;;3.63;;
70997;SDS011;58663;52.040;4.634;2023-01-30T16:53:25;14.55;;;2.28;;
70997;SDS011;58663;52.040;4.634;2023-01-30T16:55:54;17.83;;;3.47;;
70997;SDS011;58663;52.040;4.634;2023-01-30T16:58:22;22.27;;;3.08;;
70997;SDS011;58663;52.040;4.634;2023-01-30T17:00:48;24.13;;;3.28;;
70997;SDS011;58663;52.040;4.634;2023-01-30T17:03:19;28.63;;;3.55;;
70997;SDS011;58663;52.040;4.634;2023-01-30T17:05:48;14.70;;;2.50;;
70997;SDS011;58663;52.040;4.634;2023-01-30T17:11:34;19.02;;;2.75;;
70997;SDS011;58663;52.040;4.634;2023-01-30T17:14:20;27.65;;;3.17;;
70997;SDS011;58663;52.040;4.634;2023-01-30T17:17:07;19.08;;;3.15;;
70997;SDS011;58663;52.040;4.634;2023-01-30T17:19:33;21.27;;;2.97;;
70997;SDS011;58663;52.040;4.634;2023-01-30T17:22:03;26.50;;;4.22;;
70997;SDS011;58663;52.040;4.634;2023-01-30T17:24:33;29.77;;;3.28;;
70997;SDS011;58663;52.040;4.634;2023-01-30T17:27:00;16.05;;;2.92;;
70997;SDS011;58663;52.040;4.634;2023-01-30T17:29:28;20.10;;;2.78;;
70997;SDS011;58663;52.040;4.634;2023-01-30T17:31:55;24.38;;;4.22;;
70997;SDS011;58663;52.040;4.634;2023-01-30T17:34:21;21.92;;;3.42;;
70997;SDS011;58663;52.040;4.634;2023-01-30T17:36:47;21.40;;;2.95;;
70997;SDS011;58663;52.040;4.634;2023-01-30T17:39:18;22.83;;;3.40;;
70997;SDS011;58663;52.040;4.634;2023-01-30T17:41:45;29.55;;;3.78;;
70997;SDS011;58663;52.040;4.634;2023-01-30T17:44:11;22.63;;;3.65;;
70997;SDS011;58663;52.040;4.634;2023-01-30T17:46:38;19.08;;;2.92;;
70997;SDS011;58663;52.040;4.634;2023-01-30T17:51:40;27.00;;;3.28;;
70997;SDS011;58663;52.040;4.634;2023-01-30T17:54:05;15.98;;;2.90;;